Terminal Aerodrome Forecast
Issued by NWS

Home | Current Version | Previous Version | Text Only | Print | Product List | Glossary On
Versions: 1 2 3 4 5 6 7 8 9 10 11 12 13 14 15 16 17 18 19 20 21 22 23 24 25 26 27 28 29 30 31 32 33 34 35 36
000
FTUS43 KMKX 230536 AAA
TAFENW
TAF AMD
KENW 230536Z 2306/2406 00000KT 2SM BR FEW250
     FM230800 16004KT 4SM BR SCT250
     FM231200 18005KT P6SM FEW120 BKN250
     FM231500 18008KT P6SM SCT040 BKN080
     FM231900 18010KT P6SM VCSH SCT040 BKN080
      TEMPO 2319/2321 -SHRA BKN040
     FM232100 20007KT 6SM -SHRA BKN025 OVC035
     FM232300 21005KT P6SM BKN025
     FM240200 23004KT 5SM BR OVC018=

USA.gov is the U.S. government's official web portal to all federal, state and local government web resources and services.